Time;durP1;ratioP1;P1;durP2;ratioP2;P2;SDS_P1;SDS_P2;PMS_P1;PMS_P2;Temp;Humidity;BMP_temperature;BMP_pressure;BME280_temperature;BME280_humidity;BME280_pressure;Samples;Min_cycle;Max_cycle;Signal;HPM_P1;HPM_P2
2021/12/27 00:00:38;;;;;;;12.97;4.73;;;;;;;;;;4866878;29;20053;-81
2021/12/27 00:03:03;;;;;;;9.50;4.23;;;;;;;;;;4866870;29;20056;-80
2021/12/27 00:05:29;;;;;;;11.17;4.40;;;;;;;;;;4865859;29;20537;-80
2021/12/27 00:07:54;;;;;;;10.23;4.97;;;;;;;;;;4880841;29;20026;-80
2021/12/27 00:10:20;;;;;;;11.07;4.07;;;;;;;;;;4865987;29;20035;-80
2021/12/27 00:12:46;;;;;;;12.80;4.07;;;;;;;;;;4869711;29;20502;-80
2021/12/27 00:15:13;;;;;;;9.90;4.10;;;;;;;;;;4867840;29;20105;-79
2021/12/27 00:17:39;;;;;;;9.60;4.47;;;;;;;;;;4865761;29;20040;-80
2021/12/27 00:20:05;;;;;;;9.20;4.07;;;;;;;;;;4864837;29;20025;-80
2021/12/27 00:22:30;;;;;;;11.40;4.07;;;;;;;;;;4864891;29;20021;-80
2021/12/27 00:24:56;;;;;;;12.93;4.77;;;;;;;;;;4865693;29;20029;-79
2021/12/27 00:27:21;;;;;;;12.27;4.77;;;;;;;;;;4865167;29;20037;-79
2021/12/27 00:29:46;;;;;;;12.37;4.70;;;;;;;;;;4865122;29;20025;-79
2021/12/27 00:32:11;;;;;;;9.67;4.33;;;;;;;;;;4863460;29;20029;-79
2021/12/27 00:34:37;;;;;;;8.63;4.40;;;;;;;;;;4861894;29;20074;-80
2021/12/27 00:37:12;;;;;;;11.47;4.80;;;;;;;;;;4867112;29;20036;-80
2021/12/27 00:39:43;;;;;;;12.03;5.60;;;;;;;;;;4868057;29;20022;-81
2021/12/27 00:42:08;;;;;;;9.27;5.10;;;;;;;;;;4867412;29;20032;-79
2021/12/27 00:44:37;;;;;;;11.10;4.60;;;;;;;;;;4866745;29;20386;-79
2021/12/27 00:47:02;;;;;;;12.02;4.93;;;;;;;;;;4878355;29;20018;-79
2021/12/27 00:49:28;;;;;;;12.47;5.73;;;;;;;;;;4864765;29;20477;-80
2021/12/27 00:51:56;;;;;;;9.50;4.53;;;;;;;;;;4863245;29;20100;-79
2021/12/27 00:54:21;;;;;;;8.70;4.40;;;;;;;;;;4876392;29;20026;-79
2021/12/27 00:56:46;;;;;;;14.07;5.27;;;;;;;;;;4862395;29;20112;-79
2021/12/27 00:59:15;;;;;;;12.80;6.10;;;;;;;;;;4860877;29;20024;-79
2021/12/27 01:02:01;;;;;;;10.73;4.40;;;;;;;;;;4862807;29;20029;-79
2021/12/27 01:04:27;;;;;;;10.20;4.77;;;;;;;;;;4861438;29;20028;-79
2021/12/27 01:06:52;;;;;;;15.70;6.03;;;;;;;;;;4862744;29;20100;-79
2021/12/27 01:13:04;;;;;;;10.37;5.37;;;;;;;;;;4865348;29;20105;-80
2021/12/27 01:15:33;;;;;;;13.27;5.75;;;;;;;;;;4863511;29;20409;-79
2021/12/27 01:17:54;;;;;;;11.87;5.33;;;;;;;;;;4859995;29;20044;-79
2021/12/27 01:20:24;;;;;;;11.00;5.13;;;;;;;;;;4859868;29;20025;-78
2021/12/27 01:22:50;;;;;;;17.57;5.30;;;;;;;;;;4858289;29;20029;-79
2021/12/27 01:25:15;;;;;;;13.47;5.23;;;;;;;;;;4860953;29;20026;-79
2021/12/27 01:27:41;;;;;;;13.87;5.70;;;;;;;;;;4861146;29;20037;-79
2021/12/27 01:30:07;;;;;;;12.50;6.03;;;;;;;;;;4863370;29;20451;-80
2021/12/27 01:32:38;;;;;;;10.53;5.03;;;;;;;;;;4865715;29;20100;-80
2021/12/27 01:35:04;;;;;;;18.77;5.68;;;;;;;;;;4867692;29;20025;-81
2021/12/27 01:37:29;;;;;;;11.40;5.15;;;;;;;;;;4867096;29;20106;-80
2021/12/27 01:39:54;;;;;;;17.23;5.22;;;;;;;;;;4867091;29;20024;-79
2021/12/27 01:42:19;;;;;;;10.20;4.73;;;;;;;;;;4868919;29;20105;-81
2021/12/27 01:44:46;;;;;;;11.27;5.43;;;;;;;;;;4868413;29;20021;-80
2021/12/27 01:47:11;;;;;;;10.10;5.10;;;;;;;;;;4881079;29;20021;-80
2021/12/27 01:49:37;;;;;;;12.30;5.50;;;;;;;;;;4864972;29;20109;-80
2021/12/27 01:52:03;;;;;;;13.83;5.60;;;;;;;;;;4862843;29;20053;-80
2021/12/27 01:54:28;;;;;;;14.37;5.33;;;;;;;;;;4863099;29;20033;-80
2021/12/27 01:56:53;;;;;;;12.57;5.47;;;;;;;;;;4863881;29;20037;-80
2021/12/27 01:59:19;;;;;;;13.93;5.50;;;;;;;;;;4863888;29;20397;-80
2021/12/27 02:01:44;;;;;;;9.25;5.15;;;;;;;;;;4863970;29;20029;-80
2021/12/27 02:04:09;;;;;;;15.25;5.40;;;;;;;;;;4862515;29;20051;-79
2021/12/27 02:06:35;;;;;;;11.40;4.33;;;;;;;;;;4862772;29;20594;-79
2021/12/27 02:09:00;;;;;;;12.73;5.13;;;;;;;;;;4863940;29;20025;-80
2021/12/27 02:11:26;;;;;;;16.57;5.23;;;;;;;;;;4864092;29;20026;-81
2021/12/27 02:13:51;;;;;;;12.17;5.17;;;;;;;;;;4863915;29;20035;-80
2021/12/27 02:16:18;;;;;;;14.30;5.37;;;;;;;;;;4863287;29;20033;-80
2021/12/27 02:18:44;;;;;;;11.77;4.70;;;;;;;;;;4863031;29;20048;-79
2021/12/27 02:21:10;;;;;;;12.90;5.40;;;;;;;;;;4864100;29;20025;-80
2021/12/27 02:23:37;;;;;;;12.13;5.73;;;;;;;;;;4863333;29;20080;-79
2021/12/27 02:26:03;;;;;;;11.07;5.30;;;;;;;;;;4861486;29;20021;-79
2021/12/27 02:28:28;;;;;;;10.65;4.95;;;;;;;;;;4864921;29;20051;-80
2021/12/27 02:30:54;;;;;;;13.73;5.10;;;;;;;;;;4864961;29;20025;-79
2021/12/27 02:33:20;;;;;;;11.68;5.85;;;;;;;;;;4877809;29;20033;-80
2021/12/27 02:35:56;;;;;;;13.60;5.55;;;;;;;;;;4863478;29;20434;-79
2021/12/27 02:38:22;;;;;;;13.00;5.53;;;;;;;;;;4866919;29;20026;-80
2021/12/27 02:40:51;;;;;;;12.82;6.13;;;;;;;;;;4869635;29;20505;-79
2021/12/27 02:43:17;;;;;;;12.60;5.30;;;;;;;;;;4865588;29;20029;-80
2021/12/27 02:45:47;;;;;;;15.25;5.30;;;;;;;;;;4866248;29;20026;-80
2021/12/27 02:48:13;;;;;;;12.02;5.10;;;;;;;;;;4867634;29;20029;-80
2021/12/27 02:50:38;;;;;;;11.93;5.07;;;;;;;;;;4868630;29;20021;-79
2021/12/27 02:53:04;;;;;;;11.35;5.13;;;;;;;;;;4867098;29;20121;-80
2021/12/27 02:55:30;;;;;;;12.63;5.40;;;;;;;;;;4869491;29;20069;-79
2021/12/27 02:57:55;;;;;;;10.93;4.97;;;;;;;;;;4886236;29;20425;-79
2021/12/27 03:00:28;;;;;;;15.70;5.90;;;;;;;;;;4871073;29;20021;-80
2021/12/27 03:02:54;;;;;;;15.73;5.63;;;;;;;;;;4867637;29;20030;-80
2021/12/27 03:05:20;;;;;;;15.40;5.75;;;;;;;;;;4869057;29;20112;-80
2021/12/27 03:07:46;;;;;;;13.70;5.95;;;;;;;;;;4866781;29;20025;-80
2021/12/27 03:10:13;;;;;;;13.00;5.82;;;;;;;;;;4869380;29;20026;-79
2021/12/27 03:12:38;;;;;;;19.35;6.53;;;;;;;;;;4871744;29;20102;-80
2021/12/27 03:15:07;;;;;;;13.88;5.90;;;;;;;;;;4870996;29;20101;-80
2021/12/27 03:17:36;;;;;;;17.65;6.10;;;;;;;;;;4871025;29;20025;-79
2021/12/27 03:20:02;;;;;;;12.48;5.00;;;;;;;;;;4871187;29;20021;-80
2021/12/27 03:22:27;;;;;;;13.60;5.80;;;;;;;;;;4871546;29;20045;-79
2021/12/27 03:24:52;;;;;;;10.77;5.45;;;;;;;;;;4875268;29;20022;-80
2021/12/27 03:27:18;;;;;;;13.77;5.70;;;;;;;;;;4872083;29;20033;-79
2021/12/27 03:29:43;;;;;;;12.10;5.75;;;;;;;;;;4872422;29;20014;-81
2021/12/27 03:32:08;;;;;;;12.85;5.82;;;;;;;;;;4873841;29;20026;-79
2021/12/27 03:34:41;;;;;;;13.65;6.38;;;;;;;;;;4871931;29;20025;-79
2021/12/27 03:37:06;;;;;;;14.20;6.45;;;;;;;;;;4885658;29;20033;-79
2021/12/27 03:39:31;;;;;;;15.70;6.13;;;;;;;;;;4882820;29;20032;-80
2021/12/27 03:41:56;;;;;;;14.93;6.18;;;;;;;;;;4866406;29;20108;-79
2021/12/27 03:44:21;;;;;;;16.38;7.03;;;;;;;;;;4867190;29;20124;-80
2021/12/27 03:46:47;;;;;;;14.93;7.28;;;;;;;;;;4868385;29;20056;-79
2021/12/27 03:49:12;;;;;;;13.23;5.72;;;;;;;;;;4870502;29;20044;-78
2021/12/27 03:51:43;;;;;;;11.40;6.25;;;;;;;;;;4867513;29;20048;-80
2021/12/27 03:54:08;;;;;;;15.55;6.65;;;;;;;;;;4866494;29;20024;-80
2021/12/27 03:56:33;;;;;;;14.25;6.60;;;;;;;;;;4867875;29;20026;-80
2021/12/27 03:59:19;;;;;;;16.08;7.20;;;;;;;;;;4869381;29;20024;-79
2021/12/27 04:01:44;;;;;;;16.80;7.37;;;;;;;;;;4869258;29;20033;-79
2021/12/27 04:04:09;;;;;;;14.40;7.60;;;;;;;;;;4869840;29;20025;-79
2021/12/27 04:06:34;;;;;;;16.70;7.35;;;;;;;;;;4883296;29;20495;-79
2021/12/27 04:08:59;;;;;;;18.48;7.53;;;;;;;;;;4868888;29;20533;-80
2021/12/27 04:11:25;;;;;;;17.77;8.13;;;;;;;;;;4867203;29;20040;-80
2021/12/27 04:13:50;;;;;;;19.67;7.38;;;;;;;;;;4868173;29;20057;-78
2021/12/27 04:16:15;;;;;;;16.88;7.82;;;;;;;;;;4881282;29;20073;-77
2021/12/27 04:18:40;;;;;;;15.02;7.82;;;;;;;;;;4882038;29;20030;-78
2021/12/27 04:21:05;;;;;;;20.42;8.30;;;;;;;;;;4867598;29;20026;-79
2021/12/27 04:23:31;;;;;;;20.27;8.55;;;;;;;;;;4867203;29;20028;-79
2021/12/27 04:25:56;;;;;;;17.17;7.80;;;;;;;;;;4865396;29;20033;-79
2021/12/27 04:28:22;;;;;;;20.25;7.65;;;;;;;;;;4865607;29;20022;-78
2021/12/27 04:30:47;;;;;;;20.63;8.50;;;;;;;;;;4869495;29;20032;-79
2021/12/27 04:33:12;;;;;;;19.15;8.65;;;;;;;;;;4879348;29;20029;-79
2021/12/27 04:35:38;;;;;;;15.65;7.13;;;;;;;;;;4878125;29;20049;-79
2021/12/27 04:38:03;;;;;;;17.90;8.27;;;;;;;;;;4878652;29;20025;-79
2021/12/27 04:40:30;;;;;;;17.45;7.82;;;;;;;;;;4883455;29;20094;-79
2021/12/27 04:43:00;;;;;;;17.80;9.15;;;;;;;;;;4905835;23;20049;-81
2021/12/27 04:45:26;;;;;;;14.65;7.93;;;;;;;;;;4904064;29;20009;-82
2021/12/27 04:47:51;;;;;;;18.98;8.45;;;;;;;;;;4904079;29;20054;-81
2021/12/27 04:50:16;;;;;;;17.95;8.85;;;;;;;;;;4904510;29;20009;-81
2021/12/27 04:52:42;;;;;;;18.85;8.95;;;;;;;;;;4903993;29;20099;-80
2021/12/27 04:55:08;;;;;;;18.80;8.93;;;;;;;;;;4904613;29;20001;-81
2021/12/27 04:57:33;;;;;;;20.35;9.55;;;;;;;;;;4904495;29;20085;-81
2021/12/27 04:59:59;;;;;;;19.63;8.82;;;;;;;;;;4903962;29;20016;-83
2021/12/27 05:02:24;;;;;;;19.38;8.43;;;;;;;;;;4904342;29;20047;-81
2021/12/27 05:04:49;;;;;;;19.02;8.90;;;;;;;;;;4903672;29;20033;-82
2021/12/27 05:07:15;;;;;;;20.08;8.68;;;;;;;;;;4904166;29;20021;-82
2021/12/27 05:09:40;;;;;;;17.73;8.30;;;;;;;;;;4904377;29;20029;-82
2021/12/27 05:12:05;;;;;;;20.88;8.23;;;;;;;;;;4904429;29;20001;-81
2021/12/27 05:14:31;;;;;;;16.52;7.53;;;;;;;;;;4904348;29;20031;-81
2021/12/27 05:16:56;;;;;;;19.00;8.50;;;;;;;;;;4904479;29;20124;-81
2021/12/27 05:19:21;;;;;;;20.70;9.00;;;;;;;;;;4903572;29;20017;-80
2021/12/27 05:21:46;;;;;;;22.73;8.77;;;;;;;;;;4903296;29;20009;-81
2021/12/27 05:24:13;;;;;;;18.65;8.93;;;;;;;;;;4903520;29;20013;-82
2021/12/27 05:26:38;;;;;;;19.00;8.63;;;;;;;;;;4903840;29;20056;-81
2021/12/27 05:29:04;;;;;;;17.15;8.20;;;;;;;;;;4892168;29;20065;-82
2021/12/27 05:31:30;;;;;;;32.67;13.30;;;;;;;;;;4886468;29;20021;-82
2021/12/27 05:33:55;;;;;;;20.75;9.80;;;;;;;;;;4884424;29;20024;-81
2021/12/27 05:36:20;;;;;;;19.65;9.02;;;;;;;;;;4885958;29;20021;-81
2021/12/27 05:38:46;;;;;;;19.63;9.57;;;;;;;;;;4889678;29;20497;-81
2021/12/27 05:41:11;;;;;;;18.65;9.02;;;;;;;;;;4884840;29;20060;-80
2021/12/27 05:43:36;;;;;;;18.40;9.07;;;;;;;;;;4885059;29;20025;-81
2021/12/27 05:46:02;;;;;;;24.83;10.38;;;;;;;;;;4883902;29;20053;-81
2021/12/27 05:48:27;;;;;;;20.67;10.20;;;;;;;;;;4883135;29;20067;-83
2021/12/27 05:50:52;;;;;;;18.95;9.77;;;;;;;;;;4883557;29;20024;-81
2021/12/27 05:53:18;;;;;;;17.67;8.40;;;;;;;;;;4885576;29;20036;-81
2021/12/27 05:55:44;;;;;;;26.40;11.63;;;;;;;;;;4884295;29;20081;-81
2021/12/27 05:58:09;;;;;;;20.92;9.80;;;;;;;;;;4886821;29;20055;-81
2021/12/27 06:00:35;;;;;;;17.40;8.90;;;;;;;;;;4886504;29;20025;-82
2021/12/27 06:03:01;;;;;;;16.85;8.57;;;;;;;;;;4886958;29;20049;-83
2021/12/27 06:05:26;;;;;;;18.38;9.20;;;;;;;;;;4888845;29;20122;-82
2021/12/27 06:07:52;;;;;;;19.50;8.65;;;;;;;;;;4889128;29;20029;-82
2021/12/27 06:10:18;;;;;;;20.85;9.20;;;;;;;;;;4888902;29;20049;-81
2021/12/27 06:12:43;;;;;;;16.45;8.90;;;;;;;;;;4884369;29;20029;-81
2021/12/27 06:15:09;;;;;;;19.63;9.50;;;;;;;;;;4891663;29;20029;-82
2021/12/27 06:17:34;;;;;;;20.60;10.30;;;;;;;;;;4890559;29;20045;-81
2021/12/27 06:20:00;;;;;;;17.30;9.27;;;;;;;;;;4889079;29;20032;-81
2021/12/27 06:22:28;;;;;;;19.25;9.00;;;;;;;;;;4890382;29;20500;-81
2021/12/27 06:24:54;;;;;;;19.83;9.25;;;;;;;;;;4893266;29;20106;-82
2021/12/27 06:27:19;;;;;;;21.33;9.43;;;;;;;;;;4895671;29;20493;-82
2021/12/27 06:29:44;;;;;;;19.40;9.50;;;;;;;;;;4896656;29;20330;-82
2021/12/27 06:32:13;;;;;;;15.98;8.77;;;;;;;;;;4899431;29;20409;-82
2021/12/27 06:34:39;;;;;;;20.55;10.48;;;;;;;;;;4898004;29;20064;-82
2021/12/27 06:37:04;;;;;;;19.20;9.48;;;;;;;;;;4898335;29;20025;-81
2021/12/27 06:39:30;;;;;;;19.80;9.77;;;;;;;;;;4898887;29;20035;-83
2021/12/27 06:41:55;;;;;;;18.88;9.43;;;;;;;;;;4898298;29;20053;-83
2021/12/27 06:44:20;;;;;;;22.48;10.40;;;;;;;;;;4897729;29;20032;-83
2021/12/27 06:46:45;;;;;;;20.65;10.00;;;;;;;;;;4897994;29;20485;-83
2021/12/27 06:49:11;;;;;;;18.33;8.70;;;;;;;;;;4900163;29;20021;-83
2021/12/27 06:51:36;;;;;;;19.92;9.85;;;;;;;;;;4898650;29;20025;-83
2021/12/27 06:54:02;;;;;;;20.05;9.52;;;;;;;;;;4902663;29;20044;-84
2021/12/27 06:56:29;;;;;;;20.15;9.98;;;;;;;;;;4904642;29;20049;-84
2021/12/27 06:59:02;;;;;;;21.30;9.75;;;;;;;;;;4904628;29;20024;-83
2021/12/27 07:01:29;;;;;;;20.17;10.13;;;;;;;;;;4905764;29;20081;-84
2021/12/27 07:03:57;;;;;;;21.83;9.38;;;;;;;;;;4905079;29;20032;-84
2021/12/27 07:06:22;;;;;;;22.42;9.00;;;;;;;;;;4900355;29;20017;-82
2021/12/27 07:08:48;;;;;;;21.42;8.85;;;;;;;;;;4893603;29;20080;-82
2021/12/27 07:11:13;;;;;;;19.42;9.10;;;;;;;;;;4893788;29;20041;-82
2021/12/27 07:13:39;;;;;;;19.10;9.07;;;;;;;;;;4895416;29;20029;-82
2021/12/27 07:16:05;;;;;;;28.48;9.70;;;;;;;;;;4893430;29;20021;-83
2021/12/27 07:18:30;;;;;;;21.10;9.73;;;;;;;;;;4896150;29;20079;-82
2021/12/27 07:20:56;;;;;;;20.80;9.68;;;;;;;;;;4899539;29;20021;-83
2021/12/27 07:23:21;;;;;;;24.98;9.88;;;;;;;;;;4899525;29;20025;-84
2021/12/27 07:25:46;;;;;;;20.92;9.90;;;;;;;;;;4893102;29;20385;-84
2021/12/27 07:28:12;;;;;;;21.65;10.15;;;;;;;;;;4895953;29;20069;-82
2021/12/27 07:30:37;;;;;;;19.15;9.32;;;;;;;;;;4897991;29;20017;-83
2021/12/27 07:33:02;;;;;;;20.90;9.55;;;;;;;;;;4896708;29;20032;-84
2021/12/27 07:35:28;;;;;;;24.92;11.35;;;;;;;;;;4897934;29;20088;-83
2021/12/27 07:37:53;;;;;;;27.88;10.75;;;;;;;;;;4897652;29;20017;-82
2021/12/27 07:40:19;;;;;;;23.30;10.48;;;;;;;;;;4892473;29;20033;-82
2021/12/27 07:42:44;;;;;;;29.80;10.77;;;;;;;;;;4891278;29;20073;-82
2021/12/27 07:45:10;;;;;;;21.77;9.90;;;;;;;;;;4889925;29;20025;-82
2021/12/27 07:47:35;;;;;;;29.27;11.02;;;;;;;;;;4888376;29;20017;-81
2021/12/27 07:50:01;;;;;;;25.25;11.77;;;;;;;;;;4891162;29;20021;-82
2021/12/27 07:52:26;;;;;;;23.55;10.57;;;;;;;;;;4891765;29;20052;-82
2021/12/27 07:54:51;;;;;;;24.73;11.23;;;;;;;;;;4891175;29;20017;-81
2021/12/27 07:57:17;;;;;;;26.08;11.93;;;;;;;;;;4888602;29;20025;-82
2021/12/27 07:59:42;;;;;;;26.00;10.80;;;;;;;;;;4888542;29;20029;-81
2021/12/27 08:02:10;;;;;;;28.52;11.82;;;;;;;;;;4891679;29;20037;-83
2021/12/27 08:04:36;;;;;;;26.10;11.00;;;;;;;;;;4890625;29;20017;-82
2021/12/27 08:07:01;;;;;;;26.55;11.38;;;;;;;;;;4893260;29;20055;-82
2021/12/27 08:09:26;;;;;;;23.70;10.25;;;;;;;;;;4892591;29;20027;-82
2021/12/27 08:11:51;;;;;;;23.73;10.60;;;;;;;;;;4894252;29;20037;-83
2021/12/27 08:14:17;;;;;;;26.83;10.98;;;;;;;;;;4896352;29;20013;-83
2021/12/27 08:16:42;;;;;;;26.13;11.25;;;;;;;;;;4901379;29;20021;-84
2021/12/27 08:19:08;;;;;;;22.55;9.93;;;;;;;;;;4901111;29;20025;-84
2021/12/27 08:21:33;;;;;;;29.20;11.98;;;;;;;;;;4902876;29;20001;-84
2021/12/27 08:23:59;;;;;;;27.85;12.00;;;;;;;;;;4901821;29;20061;-83
2021/12/27 08:26:24;;;;;;;23.25;10.18;;;;;;;;;;4902610;29;20020;-83
2021/12/27 08:28:51;;;;;;;21.77;10.82;;;;;;;;;;4902177;29;20021;-84
2021/12/27 08:31:17;;;;;;;26.15;10.65;;;;;;;;;;4903083;29;20049;-84
2021/12/27 08:33:43;;;;;;;28.38;11.70;;;;;;;;;;4904126;29;20005;-84
2021/12/27 08:36:08;;;;;;;24.38;10.73;;;;;;;;;;4887711;29;20098;-83
2021/12/27 08:38:44;;;;;;;;;;;;;;;;;;;;;
2021/12/27 08:41:10;;;;;;;25.88;11.57;;;;;;;;;;4892620;29;20033;-84
2021/12/27 08:43:41;;;;;;;28.63;11.07;;;;;;;;;;4894989;29;20021;-82
2021/12/27 08:46:06;;;;;;;21.55;10.23;;;;;;;;;;4901175;29;20017;-83
2021/12/27 08:48:32;;;;;;;27.67;11.85;;;;;;;;;;4900116;29;20028;-84
2021/12/27 08:50:57;;;;;;;25.33;10.30;;;;;;;;;;4897806;29;20032;-83
2021/12/27 08:53:24;;;;;;;27.58;10.68;;;;;;;;;;4893606;29;20028;-84
2021/12/27 08:55:50;;;;;;;26.63;11.90;;;;;;;;;;4898254;29;20009;-85
2021/12/27 08:58:16;;;;;;;25.90;11.68;;;;;;;;;;4895799;29;20022;-82
2021/12/27 09:00:42;;;;;;;28.42;10.10;;;;;;;;;;4893073;29;20065;-81
2021/12/27 09:03:07;;;;;;;20.88;10.15;;;;;;;;;;4898108;29;20021;-85
2021/12/27 09:05:33;;;;;;;23.60;10.98;;;;;;;;;;4901845;29;20012;-83
2021/12/27 09:07:59;;;;;;;24.23;10.85;;;;;;;;;;4901837;29;20033;-82
2021/12/27 09:10:25;;;;;;;23.55;11.30;;;;;;;;;;4902291;29;20005;-85
2021/12/27 09:12:50;;;;;;;20.05;10.57;;;;;;;;;;4902268;29;20043;-85
2021/12/27 09:15:16;;;;;;;25.00;10.88;;;;;;;;;;4898430;29;20102;-82
2021/12/27 09:17:42;;;;;;;25.83;10.68;;;;;;;;;;4902634;29;20046;-83
2021/12/27 09:20:08;;;;;;;23.67;10.85;;;;;;;;;;4901934;29;20017;-87
2021/12/27 09:22:39;;;;;;;26.45;11.52;;;;;;;;;;4902071;29;20040;-83
2021/12/27 09:25:11;;;;;;;20.50;10.05;;;;;;;;;;4899231;29;20040;-83
2021/12/27 09:27:46;;;;;;;25.50;10.32;;;;;;;;;;4901677;29;20092;-83
2021/12/27 09:30:21;;;;;;;25.27;11.45;;;;;;;;;;4902350;29;20017;-85
2021/12/27 09:32:50;;;;;;;26.08;11.07;;;;;;;;;;4902666;29;20110;-86
2021/12/27 09:35:16;;;;;;;25.80;10.82;;;;;;;;;;4902933;29;20096;-84
2021/12/27 09:37:45;;;;;;;29.65;10.50;;;;;;;;;;5340193;23;20037;-84
2021/12/27 09:40:18;;;;;;;21.20;9.77;;;;;;;;;;4884833;29;20077;-86
2021/12/27 09:42:54;;;;;;;21.05;9.32;;;;;;;;;;4884758;29;20092;-85
2021/12/27 09:45:27;;;;;;;23.73;9.98;;;;;;;;;;4884979;29;20039;-85
2021/12/27 10:01:03;;;;;;;22.77;10.90;;;;;;;;;;5253103;23;20076;-83
2021/12/27 10:03:30;;;;;;;24.55;10.88;;;;;;;;;;4898141;29;20037;-83
2021/12/27 10:06:18;;;;;;;23.95;11.18;;;;;;;;;;4896647;29;20033;-84
2021/12/27 10:09:05;;;;;;;23.80;10.87;;;;;;;;;;4898958;29;20025;-83
2021/12/27 10:11:42;;;;;;;24.58;10.50;;;;;;;;;;4901041;29;20053;-84
2021/12/27 10:14:19;;;;;;;22.15;10.27;;;;;;;;;;4901067;29;20093;-83
2021/12/27 10:16:56;;;;;;;24.10;11.25;;;;;;;;;;5009287;23;20847;-83
2021/12/27 10:19:33;;;;;;;21.98;9.95;;;;;;;;;;5098526;23;20068;-84
2021/12/27 10:22:23;;;;;;;26.50;11.73;;;;;;;;;;5031850;23;20053;-84
2021/12/27 10:25:06;;;;;;;;;;;;;;;;;;;;;
2021/12/27 10:27:53;;;;;;;25.70;10.98;;;;;;;;;;4936007;23;20048;-84
2021/12/27 10:30:32;;;;;;;23.02;11.00;;;;;;;;;;4900649;29;20053;-84
2021/12/27 10:38:17;;;;;;;23.27;10.00;;;;;;;;;;5332875;23;20096;-83
2021/12/27 10:41:02;;;;;;;23.05;10.77;;;;;;;;;;4903303;29;20018;-83
2021/12/27 10:43:39;;;;;;;19.98;10.07;;;;;;;;;;4903259;29;20053;-83
2021/12/27 10:46:11;;;;;;;18.60;9.65;;;;;;;;;;5042819;23;21132;-83
2021/12/27 10:48:40;;;;;;;18.98;9.25;;;;;;;;;;4901196;29;20069;-84
2021/12/27 10:51:06;;;;;;;23.45;10.80;;;;;;;;;;5091534;23;20056;-82
2021/12/27 10:53:51;;;;;;;19.92;9.52;;;;;;;;;;4900008;29;20029;-82
2021/12/27 10:56:38;;;;;;;20.50;9.80;;;;;;;;;;4902586;29;20006;-83
2021/12/27 11:02:22;;;;;;;19.08;9.65;;;;;;;;;;5678620;23;20056;-83
2021/12/27 11:05:12;;;;;;;19.02;9.27;;;;;;;;;;4901576;29;20009;-83
2021/12/27 11:07:59;;;;;;;19.90;10.07;;;;;;;;;;5087030;23;20101;-84
2021/12/27 11:10:29;;;;;;;23.65;9.88;;;;;;;;;;4882416;29;20048;-84
2021/12/27 11:13:06;;;;;;;15.75;8.57;;;;;;;;;;4883854;29;20047;-84
2021/12/27 11:15:47;;;;;;;15.57;8.67;;;;;;;;;;4882978;29;20081;-83
2021/12/27 11:18:20;;;;;;;17.55;8.48;;;;;;;;;;4884779;29;20105;-84
2021/12/27 11:23:43;;;;;;;22.73;8.77;;;;;;;;;;4881563;29;20034;-83
2021/12/27 11:26:14;;;;;;;15.95;8.20;;;;;;;;;;4882945;29;20025;-83
2021/12/27 11:28:40;;;;;;;15.45;8.60;;;;;;;;;;4883516;29;20053;-83
2021/12/27 11:31:19;;;;;;;18.52;8.90;;;;;;;;;;4884332;29;20026;-83
2021/12/27 11:33:55;;;;;;;17.48;8.80;;;;;;;;;;4883346;29;20029;-83
2021/12/27 11:36:24;;;;;;;18.58;8.63;;;;;;;;;;4882883;29;20041;-83
2021/12/27 11:38:53;;;;;;;17.88;8.77;;;;;;;;;;4884221;29;20026;-83
2021/12/27 11:41:36;;;;;;;20.23;9.15;;;;;;;;;;4885693;29;20017;-82
2021/12/27 11:44:08;;;;;;;18.92;8.07;;;;;;;;;;4882429;29;20040;-83
2021/12/27 11:46:55;;;;;;;16.98;8.27;;;;;;;;;;4880783;29;20032;-82
2021/12/27 11:49:34;;;;;;;18.42;8.60;;;;;;;;;;4881959;29;20014;-83
2021/12/27 11:52:14;;;;;;;16.60;8.52;;;;;;;;;;4882565;29;20031;-83
2021/12/27 11:54:48;;;;;;;19.23;8.55;;;;;;;;;;4882478;29;20025;-83
2021/12/27 11:57:36;;;;;;;17.45;7.88;;;;;;;;;;4882376;29;20017;-82
2021/12/27 12:00:01;;;;;;;17.02;8.55;;;;;;;;;;4882475;29;20016;-83
2021/12/27 12:02:38;;;;;;;17.65;8.27;;;;;;;;;;4882746;29;20037;-83
2021/12/27 12:05:07;;;;;;;16.27;8.70;;;;;;;;;;4875661;29;20079;-82
2021/12/27 12:07:37;;;;;;;16.08;8.43;;;;;;;;;;4863592;29;20053;-82
2021/12/27 12:10:02;;;;;;;20.10;9.25;;;;;;;;;;4882276;29;20033;-83
2021/12/27 12:12:28;;;;;;;16.95;7.95;;;;;;;;;;4883287;29;20008;-83
2021/12/27 12:14:57;;;;;;;17.08;8.57;;;;;;;;;;4884159;29;20116;-81
2021/12/27 12:17:22;;;;;;;;;;;;;;;;;;4882708;29;20045;-82
2021/12/27 12:19:48;;;;;;;16.02;7.65;;;;;;;;;;4880331;29;19942;-83
2021/12/27 12:22:33;;;;;;;17.67;7.82;;;;;;;;;;4881641;29;20029;-82
2021/12/27 12:25:05;;;;;;;16.75;7.95;;;;;;;;;;4875917;29;20074;-83
2021/12/27 12:27:31;;;;;;;14.88;7.70;;;;;;;;;;4873726;29;20026;-82
2021/12/27 12:29:56;;;;;;;25.95;10.85;;;;;;;;;;4873251;29;20041;-82
2021/12/27 12:32:22;;;;;;;17.25;8.77;;;;;;;;;;4874848;29;20046;-81
2021/12/27 12:34:48;;;;;;;18.27;8.10;;;;;;;;;;4879294;29;20021;-83
2021/12/27 12:37:15;;;;;;;16.00;7.93;;;;;;;;;;4879095;29;20112;-82
2021/12/27 12:39:50;;;;;;;15.82;8.43;;;;;;;;;;4883467;29;20082;-83
2021/12/27 12:42:16;;;;;;;19.98;8.88;;;;;;;;;;4881562;29;20110;-82
2021/12/27 12:45:10;;;;;;;15.45;8.48;;;;;;;;;;4882998;29;20038;-83
2021/12/27 12:47:40;;;;;;;19.90;7.65;;;;;;;;;;4895262;29;20088;-83
2021/12/27 12:50:21;;;;;;;16.85;8.02;;;;;;;;;;4880864;29;20299;-82
2021/12/27 12:52:57;;;;;;;13.82;7.43;;;;;;;;;;4880185;29;20037;-84
2021/12/27 12:55:24;;;;;;;15.77;8.65;;;;;;;;;;4882593;29;20009;-82
2021/12/27 12:57:50;;;;;;;14.50;7.82;;;;;;;;;;4882432;29;20093;-82
2021/12/27 13:00:21;;;;;;;17.75;8.93;;;;;;;;;;4884123;29;20016;-83
2021/12/27 13:02:50;;;;;;;16.85;7.45;;;;;;;;;;4883000;29;20033;-81
2021/12/27 13:05:18;;;;;;;;;;;;;;;;;;4876930;29;20116;-80
2021/12/27 13:07:49;;;;;;;16.67;8.20;;;;;;;;;;4873224;29;19908;-82
2021/12/27 13:10:23;;;;;;;18.33;8.98;;;;;;;;;;4879210;29;20010;-82
2021/12/27 13:12:49;;;;;;;16.30;8.13;;;;;;;;;;4882469;29;20053;-81
2021/12/27 13:15:15;;;;;;;16.98;8.35;;;;;;;;;;4878043;29;20021;-82
2021/12/27 13:17:44;;;;;;;15.80;7.93;;;;;;;;;;4878100;29;20025;-81
2021/12/27 13:20:11;;;;;;;17.23;8.23;;;;;;;;;;4871759;29;20107;-83
2021/12/27 13:22:39;;;;;;;14.55;7.80;;;;;;;;;;4869984;29;20037;-81
2021/12/27 13:25:05;;;;;;;16.73;8.65;;;;;;;;;;4851268;29;20024;-82
2021/12/27 13:27:31;;;;;;;15.52;8.00;;;;;;;;;;4858582;29;20025;-83
2021/12/27 13:30:07;;;;;;;18.33;8.23;;;;;;;;;;4871691;29;20022;-82
2021/12/27 13:32:32;;;;;;;20.02;8.43;;;;;;;;;;4873697;29;20040;-80
2021/12/27 13:34:57;;;;;;;19.58;10.05;;;;;;;;;;4870862;29;20025;-82
2021/12/27 13:37:23;;;;;;;19.10;9.35;;;;;;;;;;4871419;29;20054;-83
2021/12/27 13:39:48;;;;;;;19.63;9.38;;;;;;;;;;4873293;29;20022;-82
2021/12/27 13:42:15;;;;;;;16.30;8.40;;;;;;;;;;4869449;29;20022;-82
2021/12/27 13:44:41;;;;;;;15.52;8.60;;;;;;;;;;4875901;29;20022;-83
2021/12/27 13:47:07;;;;;;;13.27;7.93;;;;;;;;;;4881316;29;20036;-82
2021/12/27 13:49:33;;;;;;;16.73;8.93;;;;;;;;;;4879962;29;20021;-82
2021/12/27 13:52:01;;;;;;;18.38;8.70;;;;;;;;;;4880294;29;20049;-82
2021/12/27 13:54:38;;;;;;;17.10;8.95;;;;;;;;;;4877366;29;20025;-83
2021/12/27 13:57:03;;;;;;;18.27;8.98;;;;;;;;;;4872427;29;20034;-83
2021/12/27 13:59:34;;;;;;;23.48;10.70;;;;;;;;;;4859340;29;20037;-82
2021/12/27 14:02:01;;;;;;;17.02;8.40;;;;;;;;;;4861351;29;20010;-82
2021/12/27 14:04:30;;;;;;;19.08;9.57;;;;;;;;;;4877034;29;20624;-82
2021/12/27 14:06:56;;;;;;;17.52;8.77;;;;;;;;;;4877849;29;20394;-82
2021/12/27 14:09:22;;;;;;;14.60;8.77;;;;;;;;;;4876764;29;20026;-82
2021/12/27 14:11:51;;;;;;;18.73;9.63;;;;;;;;;;4878693;29;20032;-83
2021/12/27 14:14:32;;;;;;;17.58;9.02;;;;;;;;;;4878015;29;20029;-82
2021/12/27 14:17:02;;;;;;;15.98;8.73;;;;;;;;;;4877239;29;20024;-82
2021/12/27 14:19:30;;;;;;;17.38;8.68;;;;;;;;;;4876204;29;20014;-83
2021/12/27 14:22:00;;;;;;;16.48;8.70;;;;;;;;;;4877270;29;20018;-82
2021/12/27 14:27:21;;;;;;;16.55;8.73;;;;;;;;;;5659129;23;20027;-82
2021/12/27 14:40:24;;;;;;;18.67;9.18;;;;;;;;;;5376980;23;20064;-84
2021/12/27 14:42:51;;;;;;;16.05;8.43;;;;;;;;;;4904039;29;20028;-83
2021/12/27 14:45:17;;;;;;;14.07;8.00;;;;;;;;;;4989031;23;20029;-83
2021/12/27 14:47:47;;;;;;;13.57;7.68;;;;;;;;;;4906895;29;20005;-79
2021/12/27 14:50:14;;;;;;;17.58;8.55;;;;;;;;;;4974445;23;20033;-83
2021/12/27 14:52:40;;;;;;;15.35;8.13;;;;;;;;;;4906554;29;20125;-84
2021/12/27 14:55:06;;;;;;;22.50;8.63;;;;;;;;;;5138834;23;20061;-84
2021/12/27 14:57:32;;;;;;;17.52;8.93;;;;;;;;;;4906038;29;20005;-83
2021/12/27 14:59:58;;;;;;;15.30;8.45;;;;;;;;;;4906888;29;20009;-83
2021/12/27 15:02:27;;;;;;;20.27;9.25;;;;;;;;;;4907289;29;20009;-84
2021/12/27 15:04:52;;;;;;;;;;;;;;;;;;5375650;23;20019;-85
2021/12/27 15:07:28;;;;;;;17.00;7.93;;;;;;;;;;4906652;29;19900;-85
2021/12/27 15:10:00;;;;;;;21.00;9.15;;;;;;;;;;4906547;29;20073;-85
2021/12/27 15:15:05;;;;;;;15.98;7.90;;;;;;;;;;5655239;23;20811;-84
2021/12/27 15:25:23;;;;;;;18.05;9.20;;;;;;;;;;5680804;23;20057;-86
2021/12/27 15:40:50;;;;;;;16.23;8.60;;;;;;;;;;5847687;23;20129;-83